Weather at General Edward Lawrence Logan International Airport

Public forecast

Using degrees Fahrenheit for public forecast. Weather courtesy of forecast.io.

Current aviation weather report (METAR) for General Edward Lawrence Logan International Airport

Retrieved 2020/10/23 22:54 UTC (18 minutes ago):

KBOS 232254Z 10007KT 10SM FEW027 FEW055 13/12 A3014 RMK AO2 SLP204 T01330117

Aviation forecast (TAF) for General Edward Lawrence Logan International Airport

Retrieved 2020/10/23 18:49 UTC (4 hours ago):

TAF KBOS 231740Z 2318/2424 09007KT P6SM SCT040 FM240000 12005KT P6SM BKN035 FM240400 15003KT 3SM BR SCT003 OVC007 FM240900 20005KT 5SM BR SCT003 OVC007 FM241200 22007KT P6SM BKN010 FM241500 25008KT P6SM BKN025 FM241800 28009KT P6SM BKN035